Archival Weather

Vermilion Rgnl

Danville, Illinois (KDNV)

Report from: Saturday, April 13, 2024 9:35 PM CDT
Current time: Sunday, July 14, 2024 5:09 AM CDT

Current weather – Weather history – Daily summaries
Weather forecast

Temperature15.9°C (60.6°F)
Dew point6.1°C (43.0°F)
Winds 10 kts (5.1 m/s, 11.5 mph) South (170°)
Visibility10 mi. (16.1 km)
Clouds Sky clear
Altimeter29.95 in.Hg (1014 mB)
Relative humidity52 %
Density altitude211 ft. (64 m)
Remarks Fully automated report
Automated weather observing station with precipitation discriminator
Flight conditions Visual Meteorological Conditions
Raw dataKDNV 140235Z AUTO 17010KT 10SM CLR 16/06 A2995 RMK AO2 T01590061
An error has occurred. This application may no longer respond until reloaded. Reload 🗙